sensor_id;sensor_type;location;lat;lon;timestamp;P1;durP1;ratioP1;P2;durP2;ratioP2
54917;SDS011;40818;50.562;7.454;2022-07-29T05:11:38;2.92;;;0.30;;
54917;SDS011;40818;50.562;7.454;2022-07-29T05:16:42;2.05;;;0.30;;
54917;SDS011;40818;50.562;7.454;2022-07-29T05:21:45;10.68;;;0.40;;
54917;SDS011;40818;50.562;7.454;2022-07-29T05:26:51;1.35;;;0.30;;
54917;SDS011;40818;50.562;7.454;2022-07-29T05:31:54;4.10;;;0.30;;
54917;SDS011;40818;50.562;7.454;2022-07-29T05:36:58;2.65;;;0.30;;
54917;SDS011;40818;50.562;7.454;2022-07-29T05:42:04;3.88;;;0.40;;
54917;SDS011;40818;50.562;7.454;2022-07-29T05:47:11;2.28;;;0.40;;
54917;SDS011;40818;50.562;7.454;2022-07-29T05:52:14;1.15;;;0.30;;
54917;SDS011;40818;50.562;7.454;2022-07-29T05:57:20;1.98;;;0.30;;
54917;SDS011;40818;50.562;7.454;2022-07-29T06:02:26;1.83;;;0.40;;
54917;SDS011;40818;50.562;7.454;2022-07-29T06:07:29;2.10;;;0.30;;
54917;SDS011;40818;50.562;7.454;2022-07-29T06:12:35;1.55;;;0.28;;
54917;SDS011;40818;50.562;7.454;2022-07-29T06:17:38;1.55;;;0.30;;
54917;SDS011;40818;50.562;7.454;2022-07-29T06:22:42;1.45;;;0.30;;
54917;SDS011;40818;50.562;7.454;2022-07-29T06:27:48;1.15;;;0.30;;
54917;SDS011;40818;50.562;7.454;2022-07-29T06:32:52;3.15;;;0.30;;
54917;SDS011;40818;50.562;7.454;2022-07-29T06:37:55;2.17;;;0.40;;
54917;SDS011;40818;50.562;7.454;2022-07-29T06:43:01;1.27;;;0.30;;
54917;SDS011;40818;50.562;7.454;2022-07-29T06:48:05;0.98;;;0.30;;
54917;SDS011;40818;50.562;7.454;2022-07-29T06:53:09;1.00;;;0.20;;
54917;SDS011;40818;50.562;7.454;2022-07-29T06:58:15;5.07;;;0.35;;
54917;SDS011;40818;50.562;7.454;2022-07-29T07:03:28;6.70;;;0.30;;
54917;SDS011;40818;50.562;7.454;2022-07-29T07:08:32;3.70;;;0.30;;
54917;SDS011;40818;50.562;7.454;2022-07-29T07:13:38;2.08;;;0.20;;
54917;SDS011;40818;50.562;7.454;2022-07-29T07:18:41;1.75;;;0.32;;
54917;SDS011;40818;50.562;7.454;2022-07-29T07:23:45;3.65;;;0.30;;
54917;SDS011;40818;50.562;7.454;2022-07-29T07:28:51;8.00;;;0.30;;
54917;SDS011;40818;50.562;7.454;2022-07-29T07:33:54;2.33;;;0.40;;
54917;SDS011;40818;50.562;7.454;2022-07-29T07:38:58;2.53;;;0.30;;
54917;SDS011;40818;50.562;7.454;2022-07-29T07:44:05;1.33;;;0.20;;
54917;SDS011;40818;50.562;7.454;2022-07-29T07:49:08;3.30;;;0.38;;
54917;SDS011;40818;50.562;7.454;2022-07-29T07:54:12;1.02;;;0.10;;
54917;SDS011;40818;50.562;7.454;2022-07-29T07:59:18;3.28;;;0.20;;
54917;SDS011;40818;50.562;7.454;2022-07-29T08:04:21;5.35;;;0.20;;
54917;SDS011;40818;50.562;7.454;2022-07-29T08:09:26;1.10;;;0.13;;
54917;SDS011;40818;50.562;7.454;2022-07-29T08:14:32;1.55;;;0.28;;
54917;SDS011;40818;50.562;7.454;2022-07-29T08:19:36;0.82;;;0.17;;
54917;SDS011;40818;50.562;7.454;2022-07-29T08:24:39;3.42;;;0.20;;
54917;SDS011;40818;50.562;7.454;2022-07-29T08:29:54;1.23;;;0.20;;
54917;SDS011;40818;50.562;7.454;2022-07-29T08:34:58;1.58;;;0.20;;
54917;SDS011;40818;50.562;7.454;2022-07-29T08:40:02;1.25;;;0.13;;
54917;SDS011;40818;50.562;7.454;2022-07-29T08:45:09;3.25;;;0.30;;
54917;SDS011;40818;50.562;7.454;2022-07-29T08:50:13;1.17;;;0.20;;
54917;SDS011;40818;50.562;7.454;2022-07-29T08:55:16;1.67;;;0.20;;
54917;SDS011;40818;50.562;7.454;2022-07-29T09:00:23;1.13;;;0.30;;
54917;SDS011;40818;50.562;7.454;2022-07-29T09:05:28;3.22;;;0.20;;
54917;SDS011;40818;50.562;7.454;2022-07-29T09:10:34;0.88;;;0.15;;
54917;SDS011;40818;50.562;7.454;2022-07-29T09:15:40;2.90;;;0.20;;
54917;SDS011;40818;50.562;7.454;2022-07-29T09:20:45;2.30;;;0.20;;
54917;SDS011;40818;50.562;7.454;2022-07-29T09:26:07;3.13;;;0.20;;
54917;SDS011;40818;50.562;7.454;2022-07-29T09:31:13;2.45;;;0.20;;
54917;SDS011;40818;50.562;7.454;2022-07-29T09:36:17;0.95;;;0.10;;
54917;SDS011;40818;50.562;7.454;2022-07-29T09:41:20;1.73;;;0.20;;
54917;SDS011;40818;50.562;7.454;2022-07-29T09:46:26;0.82;;;0.20;;
54917;SDS011;40818;50.562;7.454;2022-07-29T09:51:30;4.35;;;0.22;;
54917;SDS011;40818;50.562;7.454;2022-07-29T09:56:40;1.77;;;0.20;;
54917;SDS011;40818;50.562;7.454;2022-07-29T10:01:47;1.15;;;0.20;;
54917;SDS011;40818;50.562;7.454;2022-07-29T10:06:57;3.70;;;0.20;;
54917;SDS011;40818;50.562;7.454;2022-07-29T10:12:03;5.70;;;0.20;;
54917;SDS011;40818;50.562;7.454;2022-07-29T10:17:10;0.60;;;0.10;;
54917;SDS011;40818;50.562;7.454;2022-07-29T10:22:13;1.15;;;0.20;;
54917;SDS011;40818;50.562;7.454;2022-07-29T10:27:17;3.63;;;0.20;;
54917;SDS011;40818;50.562;7.454;2022-07-29T10:32:30;1.23;;;0.20;;
54917;SDS011;40818;50.562;7.454;2022-07-29T10:37:46;0.95;;;0.20;;
54917;SDS011;40818;50.562;7.454;2022-07-29T10:43:04;1.52;;;0.28;;
54917;SDS011;40818;50.562;7.454;2022-07-29T10:48:20;0.80;;;0.20;;
54917;SDS011;40818;50.562;7.454;2022-07-29T10:53:24;1.17;;;0.28;;
54917;SDS011;40818;50.562;7.454;2022-07-29T10:58:48;1.35;;;0.30;;
54917;SDS011;40818;50.562;7.454;2022-07-29T11:15:32;1.33;;;0.20;;
54917;SDS011;40818;50.562;7.454;2022-07-29T11:20:57;2.83;;;0.30;;
54917;SDS011;40818;50.562;7.454;2022-07-29T11:26:14;1.85;;;0.30;;
54917;SDS011;40818;50.562;7.454;2022-07-29T11:31:33;1.73;;;0.20;;
54917;SDS011;40818;50.562;7.454;2022-07-29T11:36:40;0.90;;;0.20;;
54917;SDS011;40818;50.562;7.454;2022-07-29T11:47:50;1.65;;;0.25;;
54917;SDS011;40818;50.562;7.454;2022-07-29T11:52:57;1.92;;;0.30;;
54917;SDS011;40818;50.562;7.454;2022-07-29T11:58:02;1.38;;;0.20;;
54917;SDS011;40818;50.562;7.454;2022-07-29T12:03:08;3.22;;;0.20;;
54917;SDS011;40818;50.562;7.454;2022-07-29T12:08:14;0.82;;;0.20;;
54917;SDS011;40818;50.562;7.454;2022-07-29T12:13:21;1.38;;;0.22;;
54917;SDS011;40818;50.562;7.454;2022-07-29T12:18:27;3.40;;;0.20;;
54917;SDS011;40818;50.562;7.454;2022-07-29T12:23:31;1.05;;;0.20;;
54917;SDS011;40818;50.562;7.454;2022-07-29T12:28:36;2.05;;;0.30;;
54917;SDS011;40818;50.562;7.454;2022-07-29T12:33:42;1.13;;;0.20;;
54917;SDS011;40818;50.562;7.454;2022-07-29T12:38:56;2.53;;;0.20;;
54917;SDS011;40818;50.562;7.454;2022-07-29T12:43:59;1.20;;;0.57;;
54917;SDS011;40818;50.562;7.454;2022-07-29T12:49:05;3.85;;;0.25;;
54917;SDS011;40818;50.562;7.454;2022-07-29T12:54:10;2.22;;;0.20;;
54917;SDS011;40818;50.562;7.454;2022-07-29T12:59:15;0.85;;;0.25;;
54917;SDS011;40818;50.562;7.454;2022-07-29T13:04:27;1.77;;;0.30;;
54917;SDS011;40818;50.562;7.454;2022-07-29T13:09:39;2.55;;;0.35;;
54917;SDS011;40818;50.562;7.454;2022-07-29T13:14:44;0.98;;;0.30;;
54917;SDS011;40818;50.562;7.454;2022-07-29T13:19:52;1.45;;;0.20;;
54917;SDS011;40818;50.562;7.454;2022-07-29T13:24:57;1.00;;;0.20;;
54917;SDS011;40818;50.562;7.454;2022-07-29T13:30:02;1.52;;;0.30;;
54917;SDS011;40818;50.562;7.454;2022-07-29T13:35:10;1.95;;;0.35;;
54917;SDS011;40818;50.562;7.454;2022-07-29T13:40:14;3.65;;;0.30;;
54917;SDS011;40818;50.562;7.454;2022-07-29T13:45:17;3.08;;;0.25;;
54917;SDS011;40818;50.562;7.454;2022-07-29T13:50:23;4.15;;;0.30;;
54917;SDS011;40818;50.562;7.454;2022-07-29T13:55:27;7.43;;;0.40;;
54917;SDS011;40818;50.562;7.454;2022-07-29T14:00:30;1.58;;;0.30;;
54917;SDS011;40818;50.562;7.454;2022-07-29T14:05:36;1.52;;;0.30;;
54917;SDS011;40818;50.562;7.454;2022-07-29T14:10:40;3.35;;;0.35;;
54917;SDS011;40818;50.562;7.454;2022-07-29T14:15:43;5.63;;;0.40;;
54917;SDS011;40818;50.562;7.454;2022-07-29T14:20:49;1.25;;;0.30;;
54917;SDS011;40818;50.562;7.454;2022-07-29T14:25:53;3.30;;;0.30;;
54917;SDS011;40818;50.562;7.454;2022-07-29T14:30:56;4.88;;;0.40;;
54917;SDS011;40818;50.562;7.454;2022-07-29T14:36:03;3.03;;;0.30;;
54917;SDS011;40818;50.562;7.454;2022-07-29T14:41:07;3.60;;;0.40;;
54917;SDS011;40818;50.562;7.454;2022-07-29T14:46:10;5.43;;;0.40;;
54917;SDS011;40818;50.562;7.454;2022-07-29T14:51:16;5.65;;;0.40;;
54917;SDS011;40818;50.562;7.454;2022-07-29T14:56:20;3.78;;;0.40;;
54917;SDS011;40818;50.562;7.454;2022-07-29T15:01:23;3.17;;;0.40;;
54917;SDS011;40818;50.562;7.454;2022-07-29T15:06:29;7.10;;;0.40;;
54917;SDS011;40818;50.562;7.454;2022-07-29T15:11:34;3.67;;;0.30;;
54917;SDS011;40818;50.562;7.454;2022-07-29T15:16:37;5.72;;;0.50;;
54917;SDS011;40818;50.562;7.454;2022-07-29T15:21:45;13.93;;;0.40;;
54917;SDS011;40818;50.562;7.454;2022-07-29T15:26:48;1.52;;;0.32;;
54917;SDS011;40818;50.562;7.454;2022-07-29T15:31:52;4.57;;;0.40;;
54917;SDS011;40818;50.562;7.454;2022-07-29T15:36:58;1.50;;;0.30;;
54917;SDS011;40818;50.562;7.454;2022-07-29T15:42:01;4.07;;;0.32;;
54917;SDS011;40818;50.562;7.454;2022-07-29T15:47:05;2.60;;;0.30;;
54917;SDS011;40818;50.562;7.454;2022-07-29T15:52:11;1.75;;;0.30;;
54917;SDS011;40818;50.562;7.454;2022-07-29T15:57:15;4.15;;;0.50;;
54917;SDS011;40818;50.562;7.454;2022-07-29T16:02:18;1.88;;;0.30;;
54917;SDS011;40818;50.562;7.454;2022-07-29T16:07:25;2.70;;;0.32;;
54917;SDS011;40818;50.562;7.454;2022-07-29T16:12:28;1.45;;;0.35;;
54917;SDS011;40818;50.562;7.454;2022-07-29T16:17:32;2.90;;;0.32;;
54917;SDS011;40818;50.562;7.454;2022-07-29T16:22:38;3.17;;;0.40;;
54917;SDS011;40818;50.562;7.454;2022-07-29T16:27:41;7.65;;;0.52;;
54917;SDS011;40818;50.562;7.454;2022-07-29T16:32:44;3.88;;;0.40;;
54917;SDS011;40818;50.562;7.454;2022-07-29T16:37:50;4.10;;;0.50;;
54917;SDS011;40818;50.562;7.454;2022-07-29T16:42:54;2.65;;;0.50;;
54917;SDS011;40818;50.562;7.454;2022-07-29T16:47:57;7.22;;;0.60;;
54917;SDS011;40818;50.562;7.454;2022-07-29T16:53:04;2.72;;;0.50;;
54917;SDS011;40818;50.562;7.454;2022-07-29T16:58:07;4.82;;;0.43;;
54917;SDS011;40818;50.562;7.454;2022-07-29T17:03:11;5.15;;;0.50;;
54917;SDS011;40818;50.562;7.454;2022-07-29T17:08:17;5.45;;;0.60;;
54917;SDS011;40818;50.562;7.454;2022-07-29T17:13:21;4.55;;;0.63;;
54917;SDS011;40818;50.562;7.454;2022-07-29T17:18:24;4.43;;;0.50;;
54917;SDS011;40818;50.562;7.454;2022-07-29T17:23:30;7.75;;;0.50;;
54917;SDS011;40818;50.562;7.454;2022-07-29T17:28:33;4.15;;;0.60;;
54917;SDS011;40818;50.562;7.454;2022-07-29T17:33:37;2.60;;;0.50;;
54917;SDS011;40818;50.562;7.454;2022-07-29T17:38:43;4.75;;;0.50;;
54917;SDS011;40818;50.562;7.454;2022-07-29T17:43:46;3.25;;;0.40;;
54917;SDS011;40818;50.562;7.454;2022-07-29T17:48:50;1.40;;;0.40;;
54917;SDS011;40818;50.562;7.454;2022-07-29T17:53:56;2.25;;;0.40;;
54917;SDS011;40818;50.562;7.454;2022-07-29T17:59:00;2.78;;;0.40;;
54917;SDS011;40818;50.562;7.454;2022-07-29T18:04:05;7.53;;;0.40;;
54917;SDS011;40818;50.562;7.454;2022-07-29T18:09:11;2.13;;;0.40;;
54917;SDS011;40818;50.562;7.454;2022-07-29T18:14:15;4.13;;;0.50;;
54917;SDS011;40818;50.562;7.454;2022-07-29T18:19:18;1.88;;;0.40;;
54917;SDS011;40818;50.562;7.454;2022-07-29T18:24:24;5.00;;;0.50;;
54917;SDS011;40818;50.562;7.454;2022-07-29T18:29:28;3.17;;;0.30;;
54917;SDS011;40818;50.562;7.454;2022-07-29T18:34:31;3.45;;;0.47;;
54917;SDS011;40818;50.562;7.454;2022-07-29T18:39:37;2.45;;;0.43;;
54917;SDS011;40818;50.562;7.454;2022-07-29T18:44:41;3.65;;;0.50;;
54917;SDS011;40818;50.562;7.454;2022-07-29T18:49:44;1.92;;;0.50;;
54917;SDS011;40818;50.562;7.454;2022-07-29T18:54:50;4.07;;;0.70;;
54917;SDS011;40818;50.562;7.454;2022-07-29T18:59:54;5.32;;;0.40;;
54917;SDS011;40818;50.562;7.454;2022-07-29T19:04:57;1.30;;;0.40;;
54917;SDS011;40818;50.562;7.454;2022-07-29T19:10:03;4.32;;;0.50;;
54917;SDS011;40818;50.562;7.454;2022-07-29T19:15:08;2.72;;;0.50;;
54917;SDS011;40818;50.562;7.454;2022-07-29T19:20:12;3.45;;;0.40;;
54917;SDS011;40818;50.562;7.454;2022-07-29T19:25:18;3.25;;;0.50;;
54917;SDS011;40818;50.562;7.454;2022-07-29T19:30:22;4.63;;;0.40;;
54917;SDS011;40818;50.562;7.454;2022-07-29T19:35:26;2.60;;;0.40;;
54917;SDS011;40818;50.562;7.454;2022-07-29T19:40:35;3.88;;;0.40;;
54917;SDS011;40818;50.562;7.454;2022-07-29T19:45:39;6.40;;;0.50;;
54917;SDS011;40818;50.562;7.454;2022-07-29T19:50:43;1.80;;;0.43;;
54917;SDS011;40818;50.562;7.454;2022-07-29T19:55:49;1.75;;;0.43;;
54917;SDS011;40818;50.562;7.454;2022-07-29T20:00:52;6.55;;;0.40;;
54917;SDS011;40818;50.562;7.454;2022-07-29T20:05:56;3.65;;;0.50;;
54917;SDS011;40818;50.562;7.454;2022-07-29T20:11:02;4.60;;;0.45;;
54917;SDS011;40818;50.562;7.454;2022-07-29T20:16:05;4.43;;;0.47;;
54917;SDS011;40818;50.562;7.454;2022-07-29T20:21:09;2.67;;;0.40;;
54917;SDS011;40818;50.562;7.454;2022-07-29T20:26:15;4.40;;;0.40;;
54917;SDS011;40818;50.562;7.454;2022-07-29T20:31:19;3.85;;;0.57;;
54917;SDS011;40818;50.562;7.454;2022-07-29T20:36:22;1.75;;;0.40;;
54917;SDS011;40818;50.562;7.454;2022-07-29T20:41:29;3.00;;;0.40;;
54917;SDS011;40818;50.562;7.454;2022-07-29T20:46:33;3.75;;;0.40;;
54917;SDS011;40818;50.562;7.454;2022-07-29T20:51:38;3.28;;;0.50;;
54917;SDS011;40818;50.562;7.454;2022-07-29T20:56:44;2.67;;;0.40;;
54917;SDS011;40818;50.562;7.454;2022-07-29T21:01:47;2.95;;;0.50;;
54917;SDS011;40818;50.562;7.454;2022-07-29T21:06:50;1.98;;;0.35;;
54917;SDS011;40818;50.562;7.454;2022-07-29T21:11:57;2.03;;;0.40;;
54917;SDS011;40818;50.562;7.454;2022-07-29T21:17:01;2.78;;;0.40;;
54917;SDS011;40818;50.562;7.454;2022-07-29T21:22:06;3.42;;;0.40;;
54917;SDS011;40818;50.562;7.454;2022-07-29T21:27:12;2.58;;;0.50;;
54917;SDS011;40818;50.562;7.454;2022-07-29T21:32:28;2.22;;;0.40;;
54917;SDS011;40818;50.562;7.454;2022-07-29T21:37:31;2.53;;;0.30;;
54917;SDS011;40818;50.562;7.454;2022-07-29T21:42:37;2.92;;;0.40;;
54917;SDS011;40818;50.562;7.454;2022-07-29T21:47:41;2.40;;;0.40;;
54917;SDS011;40818;50.562;7.454;2022-07-29T21:52:44;2.67;;;0.40;;
54917;SDS011;40818;50.562;7.454;2022-07-29T21:57:50;4.10;;;0.50;;
54917;SDS011;40818;50.562;7.454;2022-07-29T22:02:54;2.83;;;0.40;;
54917;SDS011;40818;50.562;7.454;2022-07-29T22:07:57;4.15;;;0.40;;
54917;SDS011;40818;50.562;7.454;2022-07-29T22:13:03;2.38;;;0.47;;
54917;SDS011;40818;50.562;7.454;2022-07-29T22:18:07;4.88;;;0.50;;
54917;SDS011;40818;50.562;7.454;2022-07-29T22:23:10;1.65;;;0.50;;
54917;SDS011;40818;50.562;7.454;2022-07-29T22:28:16;3.13;;;0.40;;
54917;SDS011;40818;50.562;7.454;2022-07-29T22:33:19;2.92;;;0.50;;
54917;SDS011;40818;50.562;7.454;2022-07-29T22:38:23;3.38;;;0.50;;
54917;SDS011;40818;50.562;7.454;2022-07-29T22:43:29;1.80;;;0.50;;
54917;SDS011;40818;50.562;7.454;2022-07-29T22:48:32;3.55;;;0.50;;
54917;SDS011;40818;50.562;7.454;2022-07-29T22:53:36;3.35;;;0.40;;
54917;SDS011;40818;50.562;7.454;2022-07-29T22:58:42;1.83;;;0.50;;
54917;SDS011;40818;50.562;7.454;2022-07-29T23:03:45;3.33;;;0.50;;
54917;SDS011;40818;50.562;7.454;2022-07-29T23:08:48;4.78;;;0.50;;
54917;SDS011;40818;50.562;7.454;2022-07-29T23:13:54;1.83;;;0.50;;
54917;SDS011;40818;50.562;7.454;2022-07-29T23:18:58;1.90;;;0.40;;
54917;SDS011;40818;50.562;7.454;2022-07-29T23:24:01;4.82;;;0.40;;
54917;SDS011;40818;50.562;7.454;2022-07-29T23:29:08;1.45;;;0.40;;
54917;SDS011;40818;50.562;7.454;2022-07-29T23:34:11;4.57;;;0.40;;
54917;SDS011;40818;50.562;7.454;2022-07-29T23:39:14;3.58;;;0.40;;
54917;SDS011;40818;50.562;7.454;2022-07-29T23:44:20;3.20;;;0.50;;
54917;SDS011;40818;50.562;7.454;2022-07-29T23:49:24;2.28;;;0.40;;
